Time;durP1;ratioP1;P1;durP2;ratioP2;P2;SDS_P1;SDS_P2;PMS_P1;PMS_P2;Temp;Humidity;BMP_temperature;BMP_pressure;BME280_temperature;BME280_humidity;BME280_pressure;Samples;Min_cycle;Max_cycle;Signal;HPM_P1;HPM_P2
2022/08/07 00:01:43;;;;;;;2.53;2.43;;;16.00;99.90;;;;;;4941622;28;20311;-91
2022/08/07 00:04:09;;;;;;;2.43;2.23;;;15.80;99.90;;;;;;4922035;28;20529;-90
2022/08/07 00:06:35;;;;;;;2.37;2.27;;;15.80;99.90;;;;;;4939084;28;20582;-91
2022/08/07 00:09:03;;;;;;;3.37;3.10;;;15.80;99.90;;;;;;4941083;28;20178;-91
2022/08/07 00:11:31;;;;;;;3.23;2.83;;;15.70;99.90;;;;;;4943480;28;20254;-91
2022/08/07 00:13:57;;;;;;;2.80;2.60;;;15.60;99.90;;;;;;4925449;28;20488;-90
2022/08/07 00:16:24;;;;;;;2.40;2.20;;;15.50;99.90;;;;;;4945687;28;20541;-91
2022/08/07 00:19:19;;;;;;;2.90;2.70;;;15.30;99.90;;;;;;4937526;28;20837;-91
2022/08/07 00:22:05;;;;;;;2.70;2.50;;;15.30;99.90;;;;;;4946418;28;20430;-90
2022/08/07 00:24:31;;;;;;;2.67;2.50;;;15.40;99.90;;;;;;4938734;28;20450;-91
2022/08/07 00:27:03;;;;;;;2.60;2.40;;;15.40;99.90;;;;;;4943667;28;20460;-91
2022/08/07 00:29:28;;;;;;;2.90;2.70;;;15.50;99.90;;;;;;4941257;28;20179;-91
2022/08/07 00:31:58;;;;;;;2.40;2.30;;;15.60;99.90;;;;;;4925524;28;20543;-91
2022/08/07 00:34:25;;;;;;;2.30;2.20;;;15.20;99.90;;;;;;4944000;28;20496;-90
2022/08/07 00:36:51;;;;;;;2.63;2.53;;;15.20;99.90;;;;;;4945555;28;20531;-89
2022/08/07 00:39:18;;;;;;;2.40;2.20;;;15.20;99.90;;;;;;4941192;28;21043;-89
2022/08/07 00:41:56;;;;;;;3.60;2.10;;;15.30;99.90;;;;;;4944797;28;20433;-88
2022/08/07 00:44:22;;;;;;;2.87;2.67;;;15.40;99.90;;;;;;4942222;28;20443;-89
2022/08/07 00:46:48;;;;;;;2.40;2.30;;;15.30;99.90;;;;;;4931424;28;20458;-89
2022/08/07 00:49:14;;;;;;;5.33;2.47;;;15.30;99.90;;;;;;4942277;28;20451;-89
2022/08/07 00:51:40;;;;;;;2.40;2.30;;;15.20;99.90;;;;;;4941183;28;20457;-90
2022/08/07 00:54:06;;;;;;;2.63;2.43;;;15.20;99.90;;;;;;4926666;28;21994;-90
2022/08/07 00:56:33;;;;;;;2.60;2.40;;;15.20;99.90;;;;;;4940979;28;21502;-91
2022/08/07 00:58:59;;;;;;;3.23;2.67;;;15.10;99.90;;;;;;4937231;28;20540;-90
2022/08/07 01:01:25;;;;;;;2.80;2.50;;;15.00;99.90;;;;;;4928567;28;20837;-91
2022/08/07 01:03:51;;;;;;;3.70;2.40;;;15.00;99.90;;;;;;4922998;28;20440;-90
2022/08/07 01:06:18;;;;;;;3.10;2.80;;;14.90;99.90;;;;;;4942442;28;20485;-91
2022/08/07 01:08:45;;;;;;;2.77;2.57;;;14.90;99.90;;;;;;4937586;28;20441;-90
2022/08/07 01:11:12;;;;;;;2.70;2.50;;;15.00;99.90;;;;;;4939105;28;20450;-89
2022/08/07 01:13:39;;;;;;;2.60;2.40;;;15.00;99.90;;;;;;4937630;28;20983;-91
2022/08/07 01:16:06;;;;;;;2.87;2.67;;;15.00;99.90;;;;;;4952936;28;20419;-91
2022/08/07 01:18:33;;;;;;;3.03;2.83;;;14.70;99.90;;;;;;4928657;28;20478;-90
2022/08/07 01:21:16;;;;;;;3.13;2.93;;;14.70;99.90;;;;;;4940299;28;20449;-91
2022/08/07 01:23:55;;;;;;;3.27;3.07;;;14.70;99.90;;;;;;4937707;28;20546;-91
2022/08/07 01:26:25;;;;;;;2.93;2.60;;;14.50;99.90;;;;;;4944572;28;20439;-89
2022/08/07 01:28:59;;;;;;;3.10;2.80;;;14.70;99.90;;;;;;4949499;28;20429;-91
2022/08/07 01:31:49;;;;;;;2.97;2.77;;;14.70;99.90;;;;;;4930369;28;20994;-90
2022/08/07 01:34:16;;;;;;;2.73;2.53;;;14.80;99.90;;;;;;4930714;28;20453;-92
2022/08/07 01:36:43;;;;;;;2.90;2.67;;;14.90;99.90;;;;;;4933471;28;20986;-92
2022/08/07 01:39:09;;;;;;;2.70;2.40;;;15.00;99.90;;;;;;4953230;28;21222;-92
2022/08/07 01:41:44;;;;;;;3.23;3.03;;;14.90;99.90;;;;;;4941934;28;20469;-92
2022/08/07 01:44:10;;;;;;;2.90;2.70;;;15.10;99.90;;;;;;4929973;28;20484;-90
2022/08/07 01:46:39;;;;;;;4.87;3.10;;;15.20;99.90;;;;;;4925915;28;20814;-90
2022/08/07 01:49:04;;;;;;;3.37;2.80;;;15.30;99.90;;;;;;4944237;28;20453;-89
2022/08/07 01:51:31;;;;;;;3.00;2.60;;;15.10;99.90;;;;;;4945576;28;20441;-90
2022/08/07 01:53:59;;;;;;;2.90;2.70;;;15.00;99.90;;;;;;4928289;28;20273;-89
2022/08/07 01:56:28;;;;;;;2.90;2.70;;;15.00;99.90;;;;;;4924370;28;20457;-90
2022/08/07 01:59:03;;;;;;;2.80;2.60;;;14.80;99.90;;;;;;4939956;28;20482;-89
2022/08/07 02:02:00;;;;;;;3.30;3.07;;;14.60;99.90;;;;;;4940637;28;20497;-90
2022/08/07 02:04:37;;;;;;;2.83;2.63;;;14.70;99.90;;;;;;4938245;28;20450;-90
2022/08/07 02:07:07;;;;;;;2.93;2.73;;;14.80;99.90;;;;;;4948951;28;20469;-90
2022/08/07 02:09:45;;;;;;;3.90;3.07;;;14.80;99.90;;;;;;4941415;28;20453;-90
2022/08/07 02:12:18;;;;;;;2.90;2.80;;;14.60;99.90;;;;;;4946908;28;20462;-91
2022/08/07 02:14:55;;;;;;;3.20;2.80;;;14.60;99.90;;;;;;4922195;28;20450;-90
2022/08/07 02:17:22;;;;;;;3.20;3.00;;;14.70;99.90;;;;;;4924445;28;20481;-89
2022/08/07 02:19:48;;;;;;;2.80;2.60;;;14.70;99.90;;;;;;4921534;28;20455;-88
2022/08/07 02:22:18;;;;;;;2.67;2.47;;;14.70;99.90;;;;;;4924449;29;20470;-89
2022/08/07 02:24:46;;;;;;;2.60;2.40;;;14.80;99.90;;;;;;4920617;28;20443;-89
2022/08/07 02:27:13;;;;;;;3.00;2.67;;;14.90;99.90;;;;;;4936613;28;20441;-89
2022/08/07 02:29:40;;;;;;;3.17;2.97;;;14.90;99.90;;;;;;4923286;28;20517;-89
2022/08/07 02:32:09;;;;;;;3.10;2.80;;;14.80;99.90;;;;;;4939138;28;20506;-89
2022/08/07 02:34:37;;;;;;;2.37;2.17;;;14.80;99.90;;;;;;4923933;28;20481;-90
2022/08/07 02:37:13;;;;;;;2.67;2.47;;;14.80;99.90;;;;;;4926411;29;20899;-91
2022/08/07 02:39:56;;;;;;;2.90;2.60;;;14.70;99.90;;;;;;4942760;28;20458;-88
2022/08/07 02:42:22;;;;;;;2.60;2.47;;;14.60;99.90;;;;;;4932533;28;20482;-90
2022/08/07 02:44:50;;;;;;;2.57;2.37;;;14.60;99.90;;;;;;4939425;28;20451;-91
2022/08/07 02:50:11;;;;;;;2.83;2.63;;;14.50;99.90;;;;;;4924415;28;20505;-89
2022/08/07 02:52:53;;;;;;;3.03;2.83;;;14.80;99.90;;;;;;4926300;28;20446;-89
2022/08/07 02:55:22;;;;;;;3.03;2.80;;;14.60;99.90;;;;;;4935954;28;20194;-89
2022/08/07 02:57:49;;;;;;;3.33;3.03;;;14.70;99.90;;;;;;4923130;28;20697;-90
2022/08/07 03:00:15;;;;;;;2.87;2.70;;;14.50;99.90;;;;;;4934100;28;20455;-89
2022/08/07 03:02:45;;;;;;;2.50;2.40;;;14.30;99.90;;;;;;4942063;28;20866;-88
2022/08/07 03:05:13;;;;;;;2.70;2.60;;;14.30;99.90;;;;;;4939062;28;20455;-90
2022/08/07 03:07:43;;;;;;;2.73;2.53;;;14.30;99.90;;;;;;4940571;28;20561;-90
2022/08/07 03:10:09;;;;;;;2.77;2.57;;;14.50;99.90;;;;;;4922438;29;20451;-89
2022/08/07 03:12:36;;;;;;;2.50;2.40;;;14.10;99.90;;;;;;4939297;28;20819;-90
2022/08/07 03:15:03;;;;;;;3.00;2.77;;;14.10;99.90;;;;;;4919088;29;20975;-89
2022/08/07 03:17:34;;;;;;;3.20;3.00;;;14.10;99.90;;;;;;4939637;28;21005;-90
2022/08/07 03:20:00;;;;;;;3.93;3.67;;;14.10;99.90;;;;;;4922125;28;21635;-89
2022/08/07 03:22:27;;;;;;;2.63;2.53;;;14.20;99.90;;;;;;4923871;28;21031;-90
2022/08/07 03:24:52;;;;;;;3.00;2.80;;;14.20;99.90;;;;;;4940989;28;20446;-90
2022/08/07 03:27:19;;;;;;;3.30;3.10;;;14.20;99.90;;;;;;4941588;28;20984;-90
2022/08/07 03:29:49;;;;;;;3.20;2.70;;;14.00;99.90;;;;;;4938952;28;20183;-89
2022/08/07 03:32:19;;;;;;;2.63;2.43;;;14.00;99.90;;;;;;4932869;28;20455;-90
2022/08/07 03:34:48;;;;;;;3.40;3.20;;;14.00;99.90;;;;;;4944116;28;20430;-90
2022/08/07 03:37:17;;;;;;;2.90;2.70;;;14.00;99.90;;;;;;4945110;28;20454;-89
2022/08/07 03:39:46;;;;;;;3.30;3.10;;;14.00;99.90;;;;;;4939169;28;20450;-90
2022/08/07 03:42:13;;;;;;;2.80;2.70;;;14.10;99.90;;;;;;4938642;28;20434;-89
2022/08/07 03:44:38;;;;;;;3.10;2.50;;;14.30;99.90;;;;;;4919985;29;20458;-90
2022/08/07 03:47:05;;;;;;;2.77;2.60;;;14.30;99.90;;;;;;4933748;28;20730;-89
2022/08/07 03:49:32;;;;;;;3.27;2.97;;;14.20;99.90;;;;;;4943177;28;20442;-89
2022/08/07 03:51:58;;;;;;;2.60;2.50;;;14.20;99.90;;;;;;4938562;28;21290;-89
2022/08/07 03:54:23;;;;;;;3.30;2.90;;;14.10;99.90;;;;;;4922268;28;21919;-89
2022/08/07 03:56:58;;;;;;;3.00;2.80;;;14.10;99.90;;;;;;4942979;28;20442;-90
2022/08/07 03:59:37;;;;;;;3.80;3.13;;;14.00;99.90;;;;;;4940001;28;20574;-89
2022/08/07 04:02:03;;;;;;;2.70;2.60;;;14.00;99.90;;;;;;4936213;28;21196;-89
2022/08/07 04:04:28;;;;;;;5.03;2.90;;;14.00;99.90;;;;;;4934507;28;20443;-90
2022/08/07 04:06:55;;;;;;;2.47;2.37;;;14.10;99.90;;;;;;4923791;28;20470;-89
2022/08/07 04:09:22;;;;;;;2.80;2.70;;;14.20;99.90;;;;;;4937914;28;20192;-90
2022/08/07 04:11:49;;;;;;;3.37;3.07;;;14.10;99.90;;;;;;4922434;29;20478;-89
2022/08/07 04:14:15;;;;;;;2.80;2.60;;;14.30;99.90;;;;;;4938674;28;20756;-89
2022/08/07 04:16:43;;;;;;;3.10;2.90;;;14.10;99.90;;;;;;4936463;28;20952;-89
2022/08/07 04:19:08;;;;;;;3.07;2.83;;;14.10;99.90;;;;;;4920877;28;20458;-89
2022/08/07 04:21:34;;;;;;;3.00;2.80;;;14.10;99.90;;;;;;4937417;28;20481;-90
2022/08/07 04:24:01;;;;;;;3.17;2.97;;;14.10;99.90;;;;;;4920558;28;20198;-88
2022/08/07 04:26:27;;;;;;;3.00;2.80;;;14.10;99.90;;;;;;4935003;28;20198;-89
2022/08/07 04:28:53;;;;;;;3.23;3.03;;;14.20;99.90;;;;;;4934089;28;20443;-89
2022/08/07 04:31:23;;;;;;;2.83;2.73;;;14.30;99.90;;;;;;4940314;28;20191;-90
2022/08/07 04:33:49;;;;;;;2.87;2.77;;;14.30;99.90;;;;;;4928854;28;20179;-89
2022/08/07 04:36:15;;;;;;;2.90;2.70;;;14.30;99.90;;;;;;4937639;28;20964;-88
2022/08/07 04:38:40;;;;;;;3.40;3.20;;;14.10;99.90;;;;;;4939911;28;20474;-89
2022/08/07 04:41:06;;;;;;;3.30;3.00;;;14.00;99.90;;;;;;4939299;28;20289;-90
2022/08/07 04:43:38;;;;;;;3.03;2.83;;;14.00;99.90;;;;;;4940888;28;20183;-91
2022/08/07 04:46:25;;;;;;;3.07;2.87;;;14.10;99.90;;;;;;4940813;28;20443;-90
2022/08/07 04:49:06;;;;;;;2.70;2.50;;;14.10;99.90;;;;;;4926618;28;20449;-90
2022/08/07 04:51:43;;;;;;;3.17;2.87;;;14.30;99.90;;;;;;4926413;28;20441;-90
2022/08/07 04:54:42;;;;;;;2.87;2.67;;;14.40;99.90;;;;;;4918683;28;20488;-90
2022/08/07 04:57:53;;;;;;;2.93;2.73;;;14.50;99.90;;;;;;4940072;28;20517;-89
2022/08/07 05:00:57;;;;;;;3.50;3.20;;;14.60;99.90;;;;;;4941310;28;20549;-90
2022/08/07 05:03:48;;;;;;;3.13;3.03;;;14.50;99.90;;;;;;4939533;28;20438;-90
2022/08/07 05:06:20;;;;;;;4.73;2.80;;;14.60;99.90;;;;;;4923777;28;20439;-91
2022/08/07 05:08:58;;;;;;;3.57;2.87;;;14.70;99.90;;;;;;4937457;28;20454;-90
2022/08/07 05:11:31;;;;;;;2.67;2.47;;;14.80;99.90;;;;;;4927788;28;20805;-90
2022/08/07 05:14:05;;;;;;;3.00;2.40;;;15.00;99.90;;;;;;4902855;28;20546;-90
2022/08/07 05:16:36;;;;;;;2.80;2.70;;;15.00;99.90;;;;;;4947699;28;20437;-91
2022/08/07 05:19:15;;;;;;;3.53;3.33;;;15.00;99.90;;;;;;4936966;28;20493;-90
2022/08/07 05:21:52;;;;;;;2.90;2.80;;;15.00;99.90;;;;;;4915483;28;20529;-90
2022/08/07 05:24:19;;;;;;;4.87;3.47;;;15.10;99.90;;;;;;4924734;28;20933;-90
2022/08/07 05:26:48;;;;;;;3.57;3.27;;;15.20;99.90;;;;;;4943245;28;20438;-91
2022/08/07 05:29:16;;;;;;;3.50;3.23;;;15.20;99.90;;;;;;4935561;28;20459;-91
2022/08/07 05:31:46;;;;;;;3.67;3.20;;;15.30;99.90;;;;;;4912933;28;20451;-89
2022/08/07 05:34:14;;;;;;;4.00;3.70;;;15.50;99.90;;;;;;4930111;28;20478;-89
2022/08/07 05:36:44;;;;;;;4.30;3.90;;;15.60;99.90;;;;;;4916525;28;20502;-90
2022/08/07 05:39:17;;;;;;;3.27;3.07;;;15.80;99.90;;;;;;4943593;28;20456;-91
2022/08/07 05:41:46;;;;;;;5.30;3.77;;;16.00;99.90;;;;;;4942837;28;20484;-90
2022/08/07 05:44:12;;;;;;;3.93;3.63;;;16.20;99.90;;;;;;4938116;28;20438;-90
2022/08/07 05:46:41;;;;;;;4.50;4.10;;;16.60;99.90;;;;;;4937801;28;20446;-91
2022/08/07 05:49:38;;;;;;;4.77;4.47;;;16.70;99.90;;;;;;4939491;28;20449;-91
2022/08/07 05:52:04;;;;;;;4.50;4.10;;;16.50;99.90;;;;;;4929711;28;20446;-90
2022/08/07 05:54:30;;;;;;;5.00;4.60;;;16.70;99.90;;;;;;4942886;28;20658;-90
2022/08/07 05:56:57;;;;;;;4.20;3.90;;;16.70;99.90;;;;;;4900355;28;20199;-91
2022/08/07 05:59:27;;;;;;;4.43;4.13;;;16.80;99.90;;;;;;4932173;28;20450;-89
2022/08/07 06:01:58;;;;;;;4.67;4.37;;;17.00;99.90;;;;;;4915752;28;20564;-91
2022/08/07 06:04:28;;;;;;;6.30;5.80;;;17.10;99.90;;;;;;4941516;28;20454;-91
2022/08/07 06:06:58;;;;;;;5.97;5.57;;;16.90;99.90;;;;;;4926248;28;20477;-89
2022/08/07 06:09:23;;;;;;;5.00;4.60;;;16.90;99.90;;;;;;4903775;28;20474;-89
2022/08/07 06:11:49;;;;;;;4.77;4.47;;;17.30;99.90;;;;;;4943820;28;20445;-90
2022/08/07 06:14:18;;;;;;;5.53;5.13;;;17.70;99.90;;;;;;4936902;28;20198;-88
2022/08/07 06:16:46;;;;;;;6.20;5.80;;;17.30;99.90;;;;;;4931374;28;20183;-90
2022/08/07 06:19:12;;;;;;;5.50;5.10;;;17.30;99.90;;;;;;4939722;28;20994;-90
2022/08/07 06:21:38;;;;;;;6.67;6.03;;;17.30;99.90;;;;;;4924718;28;20441;-90
2022/08/07 06:24:07;;;;;;;5.90;5.50;;;17.60;99.90;;;;;;4932137;28;20874;-88
2022/08/07 06:26:42;;;;;;;6.30;5.80;;;17.70;99.90;;;;;;4931118;28;20227;-91
2022/08/07 06:29:08;;;;;;;6.37;5.87;;;17.60;99.90;;;;;;4940268;28;20454;-89
2022/08/07 06:31:39;;;;;;;5.33;4.90;;;17.60;99.90;;;;;;4937566;28;20490;-89
2022/08/07 06:34:08;;;;;;;6.07;5.67;;;17.80;99.90;;;;;;4937803;28;20506;-90
2022/08/07 06:36:33;;;;;;;7.10;6.43;;;18.10;99.90;;;;;;4933872;28;20995;-90
2022/08/07 06:39:06;;;;;;;6.20;5.70;;;18.00;99.90;;;;;;4915741;28;20226;-89
2022/08/07 06:41:39;;;;;;;5.97;5.57;;;18.10;99.90;;;;;;4938485;28;20183;-90
2022/08/07 06:44:06;;;;;;;6.00;5.60;;;18.10;99.90;;;;;;4940975;28;21020;-90
2022/08/07 06:46:34;;;;;;;5.90;5.40;;;18.30;99.90;;;;;;4934301;28;20615;-89
2022/08/07 06:49:00;;;;;;;6.10;5.60;;;18.50;99.90;;;;;;4924130;28;20555;-90
2022/08/07 06:51:30;;;;;;;6.17;5.67;;;18.50;99.90;;;;;;4919235;28;20454;-89
2022/08/07 06:54:02;;;;;;;6.10;5.60;;;18.50;99.90;;;;;;4922078;28;20201;-89
2022/08/07 06:56:38;;;;;;;6.80;6.30;;;18.40;99.90;;;;;;4938216;28;20525;-90
2022/08/07 06:59:14;;;;;;;6.80;6.10;;;18.50;99.90;;;;;;4932671;28;20541;-90
2022/08/07 07:01:47;;;;;;;6.50;5.90;;;18.50;99.90;;;;;;4918055;28;21181;-91
2022/08/07 07:04:16;;;;;;;6.33;5.73;;;18.40;99.90;;;;;;4913123;28;20434;-90
2022/08/07 07:06:48;;;;;;;6.50;5.90;;;18.50;99.90;;;;;;4935378;28;20813;-91
2022/08/07 07:09:23;;;;;;;6.40;6.00;;;18.50;99.90;;;;;;4938154;28;20486;-90
2022/08/07 07:12:26;;;;;;;6.27;5.77;;;18.70;99.90;;;;;;4913329;28;21217;-91
2022/08/07 07:14:51;;;;;;;5.53;5.03;;;18.80;99.90;;;;;;4938079;28;20613;-89
2022/08/07 07:18:01;;;;;;;4.87;4.57;;;18.80;99.90;;;;;;4924720;28;20491;-89
2022/08/07 07:20:32;;;;;;;4.90;4.60;;;18.90;99.90;;;;;;4917867;28;20194;-89
2022/08/07 07:22:59;;;;;;;4.63;4.23;;;19.20;99.90;;;;;;4934349;28;20430;-88
2022/08/07 07:25:25;;;;;;;4.20;3.90;;;19.40;99.90;;;;;;4928972;28;20636;-89
2022/08/07 07:28:11;;;;;;;4.30;3.90;;;19.50;99.90;;;;;;4932546;28;20525;-89
2022/08/07 07:30:40;;;;;;;3.67;3.37;;;19.50;99.90;;;;;;4937008;28;20453;-89
2022/08/07 07:33:12;;;;;;;4.20;3.90;;;19.70;99.90;;;;;;4923766;28;21125;-90
2022/08/07 07:35:41;;;;;;;3.50;3.30;;;19.70;99.90;;;;;;4916969;28;20472;-88
2022/08/07 07:38:10;;;;;;;3.87;3.67;;;19.70;99.90;;;;;;4924013;28;20569;-92
2022/08/07 07:40:38;;;;;;;3.17;2.97;;;19.80;99.90;;;;;;4917507;29;21125;-89
2022/08/07 07:43:04;;;;;;;3.40;3.20;;;19.90;99.90;;;;;;4930578;28;20446;-90
2022/08/07 07:45:31;;;;;;;3.37;3.13;;;20.00;99.90;;;;;;4940195;28;21040;-89
2022/08/07 07:47:58;;;;;;;3.10;2.90;;;20.10;99.30;;;;;;4934129;28;20455;-92
2022/08/07 07:50:26;;;;;;;3.10;2.80;;;20.00;98.70;;;;;;4936407;28;20465;-90
2022/08/07 07:52:54;;;;;;;2.80;2.60;;;20.10;98.90;;;;;;4921992;28;20448;-90
2022/08/07 07:55:24;;;;;;;4.10;3.10;;;20.20;98.30;;;;;;4936620;28;20442;-90
2022/08/07 07:57:51;;;;;;;2.70;2.60;;;20.30;98.00;;;;;;4936840;28;20481;-91
2022/08/07 08:00:17;;;;;;;2.20;2.10;;;20.20;97.60;;;;;;4926986;28;21248;-88
2022/08/07 08:02:47;;;;;;;2.40;2.20;;;20.20;96.80;;;;;;4909531;28;20443;-90
2022/08/07 08:05:16;;;;;;;2.60;2.43;;;20.30;96.80;;;;;;4929005;28;20434;-89
2022/08/07 08:07:46;;;;;;;2.30;2.20;;;20.50;96.40;;;;;;4919560;28;20493;-91
2022/08/07 08:10:13;;;;;;;2.37;2.17;;;20.50;96.80;;;;;;4920587;28;20437;-89
2022/08/07 08:12:43;;;;;;;2.00;1.90;;;20.50;94.40;;;;;;4921525;28;20530;-89
2022/08/07 08:15:12;;;;;;;1.97;1.87;;;20.90;95.20;;;;;;4947384;28;20817;-94
2022/08/07 08:17:42;;;;;;;1.90;1.80;;;20.70;94.10;;;;;;4924599;28;20482;-91
2022/08/07 08:20:17;;;;;;;1.80;1.70;;;20.80;93.80;;;;;;4920675;28;20434;-91
2022/08/07 08:28:39;;;;;;;1.83;1.73;;;21.20;94.20;;;;;;4935997;28;20469;-93
2022/08/07 08:31:08;;;;;;;2.27;2.00;;;21.10;92.00;;;;;;4937816;28;20472;-91
2022/08/07 08:33:37;;;;;;;2.00;1.60;;;21.20;91.80;;;;;;4933048;28;20451;-91
2022/08/07 08:36:06;;;;;;;1.93;1.70;;;21.20;91.30;;;;;;4921863;28;20442;-90
2022/08/07 08:38:42;;;;;;;2.50;1.60;;;21.20;90.90;;;;;;4939053;28;20480;-91
2022/08/07 08:41:45;;;;;;;1.90;1.80;;;21.20;92.20;;;;;;4927408;28;20476;-88
2022/08/07 08:44:41;;;;;;;1.67;1.57;;;21.50;92.20;;;;;;4923947;28;20470;-91
2022/08/07 08:47:25;;;;;;;1.60;1.50;;;21.60;91.80;;;;;;4917139;28;20474;-91
2022/08/07 08:50:10;;;;;;;2.00;1.90;;;21.80;90.70;;;;;;4927218;28;20500;-91
2022/08/07 08:52:52;;;;;;;1.80;1.70;;;21.80;91.10;;;;;;4941674;28;20466;-90
2022/08/07 08:55:37;;;;;;;1.80;1.70;;;21.70;90.10;;;;;;4940638;28;20457;-88
2022/08/07 08:58:41;;;;;;;2.63;1.80;;;21.70;90.70;;;;;;4944763;28;20475;-89
2022/08/07 09:01:15;;;;;;;1.77;1.67;;;21.90;90.00;;;;;;4935812;28;20453;-90
2022/08/07 09:03:44;;;;;;;1.47;1.37;;;22.10;88.00;;;;;;4941444;28;20453;-90
2022/08/07 09:06:34;;;;;;;1.60;1.50;;;22.20;89.60;;;;;;4935389;28;20439;-91
2022/08/07 09:09:07;;;;;;;2.47;1.80;;;22.30;86.90;;;;;;4937844;28;20533;-92
2022/08/07 09:11:52;;;;;;;1.47;1.40;;;22.40;86.70;;;;;;4921087;28;20462;-93
2022/08/07 09:14:37;;;;;;;1.50;1.40;;;22.40;87.40;;;;;;4933771;28;21028;-92
2022/08/07 09:17:40;;;;;;;1.97;1.60;;;22.40;88.10;;;;;;4930423;28;20441;-91
2022/08/07 09:20:08;;;;;;;1.60;1.50;;;22.70;85.10;;;;;;4924517;28;21412;-89
2022/08/07 09:22:36;;;;;;;1.60;1.50;;;22.90;86.50;;;;;;4928655;28;20517;-91
2022/08/07 09:25:38;;;;;;;1.90;1.80;;;22.90;83.40;;;;;;4924230;28;20484;-91
2022/08/07 09:28:37;;;;;;;1.67;1.57;;;23.10;84.50;;;;;;4849881;29;20446;-94
2022/08/07 09:31:09;;;;;;;1.43;1.30;;;23.20;84.60;;;;;;4937093;28;20450;-91
2022/08/07 09:33:56;;;;;;;1.40;1.30;;;23.30;80.30;;;;;;4932579;28;20446;-93
2022/08/07 09:36:41;;;;;;;1.40;1.20;;;23.30;78.20;;;;;;4934473;28;20426;-92
2022/08/07 09:39:07;;;;;;;1.50;1.40;;;23.60;79.20;;;;;;4941761;28;20614;-93
2022/08/07 09:41:37;;;;;;;1.57;1.47;;;23.60;81.00;;;;;;4941392;28;20443;-92
2022/08/07 09:44:34;;;;;;;1.50;1.20;;;23.50;75.70;;;;;;4919498;29;20187;-94
2022/08/07 09:47:12;;;;;;;1.40;1.30;;;23.70;76.50;;;;;;4930263;28;20439;-93
2022/08/07 09:49:44;;;;;;;1.67;1.50;;;23.60;75.40;;;;;;4945622;28;20450;-95
2022/08/07 09:52:19;;;;;;;1.30;1.30;;;23.60;76.40;;;;;;4927662;28;20900;-94
2022/08/07 09:55:03;;;;;;;1.20;1.20;;;23.80;74.20;;;;;;4950994;28;21022;-94
2022/08/07 09:57:51;;;;;;;2.20;1.63;;;23.90;73.00;;;;;;4929244;28;20470;-92
2022/08/07 10:00:20;;;;;;;1.83;1.20;;;23.90;71.30;;;;;;4947530;28;20521;-94
2022/08/07 10:02:58;;;;;;;1.90;1.10;;;24.20;73.20;;;;;;4938438;28;20439;-92
2022/08/07 10:06:12;;;;;;;1.47;1.30;;;24.30;72.50;;;;;;4933456;28;21014;-92
2022/08/07 10:09:14;;;;;;;2.50;1.40;;;24.40;68.60;;;;;;4944006;28;20435;-93
2022/08/07 10:12:06;;;;;;;0.93;0.93;;;24.70;69.70;;;;;;4927697;28;20460;-93
2022/08/07 10:15:13;;;;;;;1.40;1.30;;;24.70;69.10;;;;;;4947381;28;20455;-93
2022/08/07 10:18:00;;;;;;;1.07;1.07;;;24.80;67.40;;;;;;4914612;28;20479;-89
2022/08/07 10:21:11;;;;;;;1.00;1.00;;;24.80;67.70;;;;;;4949573;28;20426;-93
2022/08/07 10:24:18;;;;;;;1.40;1.30;;;24.70;67.60;;;;;;4938353;28;20454;-95
2022/08/07 10:27:05;;;;;;;1.10;1.10;;;24.80;66.70;;;;;;4926222;28;20498;-91
2022/08/07 10:29:49;;;;;;;1.43;1.33;;;24.70;63.10;;;;;;4940463;28;20426;-92
2022/08/07 10:32:36;;;;;;;1.37;1.27;;;24.80;64.20;;;;;;4945284;28;20447;-92
2022/08/07 10:35:54;;;;;;;1.20;1.20;;;25.20;63.00;;;;;;4934640;28;20442;-93
2022/08/07 10:38:56;;;;;;;3.10;1.53;;;25.40;63.70;;;;;;4937232;28;22188;-93
2022/08/07 10:42:18;;;;;;;3.33;3.13;;;25.70;62.70;;;;;;4944795;28;20459;-93
2022/08/07 10:44:59;;;;;;;1.00;1.00;;;25.80;61.70;;;;;;4923128;28;20840;-95
2022/08/07 10:47:49;;;;;;;2.13;1.20;;;25.80;60.80;;;;;;4923312;28;20446;-94
2022/08/07 10:50:43;;;;;;;1.37;1.27;;;25.60;61.50;;;;;;4946958;28;20439;-96
2022/08/07 10:53:28;;;;;;;1.40;1.00;;;25.90;62.00;;;;;;4927575;28;20853;-94
2022/08/07 10:56:08;;;;;;;1.20;1.07;;;25.90;60.10;;;;;;4935173;28;20430;-93
2022/08/07 10:58:55;;;;;;;1.23;1.23;;;25.70;62.40;;;;;;4935624;28;20485;-96
2022/08/07 11:01:28;;;;;;;1.17;1.07;;;25.70;63.00;;;;;;4933029;28;20435;-95
2022/08/07 11:04:22;;;;;;;1.30;1.30;;;25.80;62.70;;;;;;4934399;28;20495;-95
2022/08/07 11:07:16;;;;;;;1.80;1.10;;;26.00;59.80;;;;;;4947657;28;20496;-96
2022/08/07 11:09:48;;;;;;;2.87;1.20;;;26.00;58.00;;;;;;4931700;28;20514;-96
2022/08/07 11:12:17;;;;;;;1.20;1.10;;;26.60;61.10;;;;;;4950499;28;20473;-96
2022/08/07 11:14:50;;;;;;;1.20;1.10;;;26.50;61.30;;;;;;4931207;28;20435;-95
2022/08/07 11:17:22;;;;;;;1.37;1.27;;;26.40;59.80;;;;;;4951015;28;20513;-95
2022/08/07 11:20:03;;;;;;;1.30;1.20;;;26.40;60.80;;;;;;4948292;28;20447;-95
2022/08/07 11:22:39;;;;;;;1.07;1.07;;;26.50;59.90;;;;;;4950785;28;20504;-95
2022/08/07 11:25:12;;;;;;;1.57;1.47;;;26.50;59.80;;;;;;4944126;28;20537;-96
2022/08/07 11:27:44;;;;;;;1.10;1.10;;;26.50;57.90;;;;;;4936967;28;20450;-95
2022/08/07 11:30:17;;;;;;;1.50;1.40;;;26.80;59.30;;;;;;4940707;28;20447;-94
2022/08/07 11:33:07;;;;;;;1.93;1.73;;;26.70;55.30;;;;;;4951834;28;20438;-95
2022/08/07 11:35:51;;;;;;;1.30;1.20;;;26.80;59.80;;;;;;4928215;28;20537;-94
2022/08/07 11:38:21;;;;;;;2.50;1.90;;;26.90;57.90;;;;;;4942140;28;20611;-94
2022/08/07 11:40:58;;;;;;;2.67;1.13;;;26.90;57.20;;;;;;4943865;28;20853;-95
2022/08/07 11:43:27;;;;;;;1.43;1.33;;;27.00;59.90;;;;;;4946620;28;20484;-95
2022/08/07 11:46:05;;;;;;;1.70;1.37;;;27.30;58.40;;;;;;4931137;28;20446;-95
2022/08/07 11:49:02;;;;;;;1.20;1.20;;;27.30;57.70;;;;;;4930441;28;20450;-96
2022/08/07 11:51:42;;;;;;;1.07;0.90;;;27.30;63.00;;;;;;4934727;28;20999;-96
2022/08/07 11:54:16;;;;;;;1.60;1.50;;;26.80;58.50;;;;;;4949699;28;20443;-94
2022/08/07 11:57:17;;;;;;;2.20;2.00;;;26.80;59.40;;;;;;4949754;28;20437;-95
2022/08/07 11:59:55;;;;;;;3.00;1.70;;;26.90;58.20;;;;;;4946224;28;20458;-95
2022/08/07 12:02:29;;;;;;;1.40;1.40;;;27.00;58.50;;;;;;4950053;28;20501;-94
2022/08/07 12:05:06;;;;;;;2.03;1.37;;;27.00;59.00;;;;;;4949961;28;20524;-95
2022/08/07 12:07:39;;;;;;;1.17;1.17;;;27.00;56.50;;;;;;4935992;28;20465;-96
2022/08/07 12:10:43;;;;;;;2.97;1.70;;;27.30;57.80;;;;;;4951637;28;20441;-93
2022/08/07 12:13:22;;;;;;;2.40;1.77;;;27.50;59.50;;;;;;4949058;28;20504;-93
2022/08/07 12:15:57;;;;;;;2.17;2.07;;;27.60;58.70;;;;;;4956577;28;20469;-94
2022/08/07 12:18:38;;;;;;;3.60;1.10;;;27.80;59.30;;;;;;4952974;28;20512;-96
2022/08/07 12:21:19;;;;;;;1.30;1.20;;;27.70;59.20;;;;;;4954633;28;20437;-93
2022/08/07 12:24:09;;;;;;;1.37;1.27;;;27.90;62.60;;;;;;4931424;28;20486;-94
2022/08/07 12:26:46;;;;;;;1.60;1.47;;;27.70;59.00;;;;;;4935678;29;20454;-94
2022/08/07 12:29:34;;;;;;;1.20;1.20;;;27.60;54.70;;;;;;4936330;28;20987;-94
2022/08/07 12:32:08;;;;;;;1.20;1.20;;;27.60;58.10;;;;;;4934274;29;20956;-96
2022/08/07 12:34:38;;;;;;;2.27;1.30;;;27.90;53.10;;;;;;4948396;28;20458;-95
2022/08/07 12:37:05;;;;;;;1.70;1.17;;;28.10;57.30;;;;;;4948575;28;20469;-96
2022/08/07 12:39:32;;;;;;;1.10;1.10;;;28.20;57.50;;;;;;4937052;28;20609;-96
2022/08/07 12:41:59;;;;;;;1.30;1.20;;;28.50;56.60;;;;;;4953395;28;20793;-95
2022/08/07 12:44:27;;;;;;;1.63;1.17;;;28.50;57.30;;;;;;4953944;28;20449;-96
2022/08/07 12:47:05;;;;;;;1.90;1.50;;;28.50;55.90;;;;;;4951763;28;20864;-95
2022/08/07 12:50:00;;;;;;;1.43;1.00;;;28.20;56.80;;;;;;4928453;28;20442;-94
2022/08/07 12:52:46;;;;;;;1.43;1.33;;;28.50;59.70;;;;;;4915562;28;20445;-95
2022/08/07 12:55:28;;;;;;;1.80;1.63;;;28.50;54.20;;;;;;4942145;28;20803;-94
2022/08/07 12:57:56;;;;;;;1.10;1.10;;;28.50;57.20;;;;;;4937929;28;20536;-95
2022/08/07 13:00:47;;;;;;;1.47;1.47;;;28.40;56.20;;;;;;4953124;28;20784;-96
2022/08/07 13:03:46;;;;;;;1.60;1.50;;;28.40;52.70;;;;;;4902009;28;20447;-96
2022/08/07 13:06:28;;;;;;;1.33;1.33;;;28.50;56.70;;;;;;4939891;28;20967;-96
2022/08/07 13:09:25;;;;;;;1.60;1.40;;;28.40;55.20;;;;;;4932984;28;20796;-94
2022/08/07 13:12:18;;;;;;;1.60;1.50;;;28.70;56.30;;;;;;4931478;28;20909;-95
2022/08/07 13:14:55;;;;;;;2.07;1.43;;;29.00;54.80;;;;;;4935683;28;21039;-94
2022/08/07 13:17:53;;;;;;;1.77;1.40;;;29.10;54.60;;;;;;4951393;28;20462;-95
2022/08/07 13:20:54;;;;;;;4.00;1.60;;;29.30;55.30;;;;;;4931678;28;20474;-94
2022/08/07 13:23:31;;;;;;;1.57;1.47;;;29.00;55.40;;;;;;4928631;28;20435;-94
2022/08/07 13:26:18;;;;;;;1.40;1.30;;;29.40;56.50;;;;;;4942111;28;20485;-95
2022/08/07 13:29:06;;;;;;;1.57;1.57;;;29.20;56.10;;;;;;4928794;28;20851;-94
2022/08/07 13:31:40;;;;;;;1.83;1.73;;;29.00;54.20;;;;;;4945269;28;20449;-95
2022/08/07 13:34:34;;;;;;;2.43;1.63;;;29.10;52.50;;;;;;4930881;29;20454;-92
2022/08/07 13:37:40;;;;;;;1.87;1.77;;;28.90;55.20;;;;;;4949864;28;20963;-94
2022/08/07 13:40:28;;;;;;;1.97;1.47;;;28.90;57.20;;;;;;4947899;28;22780;-94